sensor_id;sensor_type;location;lat;lon;timestamp;P1;durP1;ratioP1;P2;durP2;ratioP2
57241;SDS011;43095;53.302;5.786;2023-09-12T00:01:23;33.92;;;28.25;;
57241;SDS011;43095;53.302;5.786;2023-09-12T00:03:51;39.40;;;32.25;;
57241;SDS011;43095;53.302;5.786;2023-09-12T00:06:18;43.13;;;33.25;;
57241;SDS011;43095;53.302;5.786;2023-09-12T00:08:45;39.47;;;29.38;;
57241;SDS011;43095;53.302;5.786;2023-09-12T00:11:12;43.55;;;32.88;;
57241;SDS011;43095;53.302;5.786;2023-09-12T00:13:40;41.45;;;32.75;;
57241;SDS011;43095;53.302;5.786;2023-09-12T00:16:08;35.42;;;29.50;;
57241;SDS011;43095;53.302;5.786;2023-09-12T00:18:38;40.17;;;31.48;;
57241;SDS011;43095;53.302;5.786;2023-09-12T00:21:06;42.58;;;30.25;;
57241;SDS011;43095;53.302;5.786;2023-09-12T00:23:33;38.75;;;30.58;;
57241;SDS011;43095;53.302;5.786;2023-09-12T00:26:05;34.38;;;28.52;;
57241;SDS011;43095;53.302;5.786;2023-09-12T00:28:33;35.30;;;30.00;;
57241;SDS011;43095;53.302;5.786;2023-09-12T00:31:00;41.10;;;30.58;;
57241;SDS011;43095;53.302;5.786;2023-09-12T00:33:27;44.85;;;33.47;;
57241;SDS011;43095;53.302;5.786;2023-09-12T00:35:57;47.75;;;36.08;;
57241;SDS011;43095;53.302;5.786;2023-09-12T00:38:25;44.67;;;34.50;;
57241;SDS011;43095;53.302;5.786;2023-09-12T00:40:52;39.33;;;31.25;;
57241;SDS011;43095;53.302;5.786;2023-09-12T00:43:21;39.33;;;31.17;;
57241;SDS011;43095;53.302;5.786;2023-09-12T00:45:50;44.17;;;34.40;;
57241;SDS011;43095;53.302;5.786;2023-09-12T00:48:18;42.60;;;35.03;;
57241;SDS011;43095;53.302;5.786;2023-09-12T00:50:49;43.88;;;33.22;;
57241;SDS011;43095;53.302;5.786;2023-09-12T00:53:18;43.85;;;34.58;;
57241;SDS011;43095;53.302;5.786;2023-09-12T00:55:50;42.22;;;35.00;;
57241;SDS011;43095;53.302;5.786;2023-09-12T00:58:23;40.88;;;31.10;;
57241;SDS011;43095;53.302;5.786;2023-09-12T01:00:51;42.53;;;34.85;;
57241;SDS011;43095;53.302;5.786;2023-09-12T01:03:19;47.95;;;35.80;;
57241;SDS011;43095;53.302;5.786;2023-09-12T01:05:46;42.50;;;33.38;;
57241;SDS011;43095;53.302;5.786;2023-09-12T01:08:15;40.83;;;31.55;;
57241;SDS011;43095;53.302;5.786;2023-09-12T01:10:42;45.88;;;34.35;;
57241;SDS011;43095;53.302;5.786;2023-09-12T01:13:13;40.72;;;33.25;;
57241;SDS011;43095;53.302;5.786;2023-09-12T01:15:41;48.28;;;34.45;;
57241;SDS011;43095;53.302;5.786;2023-09-12T01:18:08;51.28;;;37.92;;
57241;SDS011;43095;53.302;5.786;2023-09-12T01:20:36;43.95;;;33.90;;
57241;SDS011;43095;53.302;5.786;2023-09-12T01:23:27;46.00;;;35.10;;
57241;SDS011;43095;53.302;5.786;2023-09-12T01:29:16;46.58;;;33.40;;
57241;SDS011;43095;53.302;5.786;2023-09-12T01:31:45;44.58;;;32.75;;
57241;SDS011;43095;53.302;5.786;2023-09-12T01:34:13;46.13;;;34.67;;
57241;SDS011;43095;53.302;5.786;2023-09-12T01:36:40;44.20;;;31.48;;
57241;SDS011;43095;53.302;5.786;2023-09-12T01:39:11;41.60;;;30.98;;
57241;SDS011;43095;53.302;5.786;2023-09-12T01:41:39;42.20;;;33.58;;
57241;SDS011;43095;53.302;5.786;2023-09-12T01:44:12;53.28;;;36.80;;
57241;SDS011;43095;53.302;5.786;2023-09-12T01:46:46;42.72;;;32.90;;
57241;SDS011;43095;53.302;5.786;2023-09-12T01:49:16;46.47;;;34.05;;
57241;SDS011;43095;53.302;5.786;2023-09-12T01:51:47;44.17;;;33.47;;
57241;SDS011;43095;53.302;5.786;2023-09-12T01:54:15;39.42;;;30.70;;
57241;SDS011;43095;53.302;5.786;2023-09-12T01:56:46;48.60;;;35.30;;
57241;SDS011;43095;53.302;5.786;2023-09-12T01:59:17;36.05;;;30.40;;
57241;SDS011;43095;53.302;5.786;2023-09-12T02:01:44;39.70;;;31.30;;
57241;SDS011;43095;53.302;5.786;2023-09-12T02:04:11;40.35;;;30.42;;
57241;SDS011;43095;53.302;5.786;2023-09-12T02:06:41;42.95;;;32.95;;
57241;SDS011;43095;53.302;5.786;2023-09-12T02:09:08;39.53;;;31.63;;
57241;SDS011;43095;53.302;5.786;2023-09-12T02:11:36;44.97;;;32.72;;
57241;SDS011;43095;53.302;5.786;2023-09-12T02:14:03;44.25;;;32.55;;
57241;SDS011;43095;53.302;5.786;2023-09-12T02:16:31;44.90;;;33.17;;
57241;SDS011;43095;53.302;5.786;2023-09-12T02:19:01;41.05;;;31.65;;
57241;SDS011;43095;53.302;5.786;2023-09-12T02:21:28;47.17;;;34.20;;
57241;SDS011;43095;53.302;5.786;2023-09-12T02:23:55;42.28;;;32.50;;
57241;SDS011;43095;53.302;5.786;2023-09-12T02:26:22;39.28;;;30.23;;
57241;SDS011;43095;53.302;5.786;2023-09-12T02:28:52;42.47;;;31.13;;
57241;SDS011;43095;53.302;5.786;2023-09-12T02:31:19;42.50;;;31.40;;
57241;SDS011;43095;53.302;5.786;2023-09-12T02:33:46;42.75;;;31.63;;
57241;SDS011;43095;53.302;5.786;2023-09-12T02:36:14;37.72;;;29.52;;
57241;SDS011;43095;53.302;5.786;2023-09-12T02:38:41;37.85;;;29.95;;
57241;SDS011;43095;53.302;5.786;2023-09-12T02:41:09;42.08;;;31.67;;
57241;SDS011;43095;53.302;5.786;2023-09-12T02:43:36;47.17;;;33.67;;
57241;SDS011;43095;53.302;5.786;2023-09-12T02:46:03;42.88;;;32.83;;
57241;SDS011;43095;53.302;5.786;2023-09-12T02:48:30;40.47;;;30.13;;
57241;SDS011;43095;53.302;5.786;2023-09-12T02:50:58;48.65;;;35.33;;
57241;SDS011;43095;53.302;5.786;2023-09-12T02:53:25;48.60;;;36.53;;
57241;SDS011;43095;53.302;5.786;2023-09-12T02:55:52;40.75;;;32.38;;
57241;SDS011;43095;53.302;5.786;2023-09-12T02:58:20;48.03;;;35.85;;
57241;SDS011;43095;53.302;5.786;2023-09-12T03:00:47;44.75;;;33.28;;
57241;SDS011;43095;53.302;5.786;2023-09-12T03:03:16;44.28;;;33.15;;
57241;SDS011;43095;53.302;5.786;2023-09-12T03:05:44;42.10;;;31.48;;
57241;SDS011;43095;53.302;5.786;2023-09-12T03:08:11;39.50;;;30.10;;
57241;SDS011;43095;53.302;5.786;2023-09-12T03:10:39;41.78;;;31.10;;
57241;SDS011;43095;53.302;5.786;2023-09-12T03:13:06;45.88;;;32.78;;
57241;SDS011;43095;53.302;5.786;2023-09-12T03:15:36;40.80;;;30.25;;
57241;SDS011;43095;53.302;5.786;2023-09-12T03:18:04;39.97;;;30.38;;
57241;SDS011;43095;53.302;5.786;2023-09-12T03:20:37;46.67;;;32.35;;
57241;SDS011;43095;53.302;5.786;2023-09-12T03:23:07;49.40;;;35.58;;
57241;SDS011;43095;53.302;5.786;2023-09-12T03:25:35;42.92;;;31.38;;
57241;SDS011;43095;53.302;5.786;2023-09-12T03:28:06;43.38;;;32.72;;
57241;SDS011;43095;53.302;5.786;2023-09-12T03:30:35;52.28;;;36.78;;
57241;SDS011;43095;53.302;5.786;2023-09-12T03:33:04;47.83;;;34.88;;
57241;SDS011;43095;53.302;5.786;2023-09-12T03:35:33;41.33;;;31.05;;
57241;SDS011;43095;53.302;5.786;2023-09-12T03:38:02;47.45;;;34.40;;
57241;SDS011;43095;53.302;5.786;2023-09-12T03:40:29;37.40;;;29.65;;
57241;SDS011;43095;53.302;5.786;2023-09-12T03:42:58;40.85;;;30.90;;
57241;SDS011;43095;53.302;5.786;2023-09-12T03:45:25;44.88;;;32.50;;
57241;SDS011;43095;53.302;5.786;2023-09-12T03:47:53;41.90;;;31.27;;
57241;SDS011;43095;53.302;5.786;2023-09-12T03:50:20;48.60;;;34.38;;
57241;SDS011;43095;53.302;5.786;2023-09-12T03:52:47;50.38;;;32.45;;
57241;SDS011;43095;53.302;5.786;2023-09-12T03:55:15;46.72;;;33.70;;
57241;SDS011;43095;53.302;5.786;2023-09-12T03:57:43;43.75;;;32.83;;
57241;SDS011;43095;53.302;5.786;2023-09-12T04:00:10;59.45;;;36.30;;
57241;SDS011;43095;53.302;5.786;2023-09-12T04:02:42;42.90;;;31.63;;
57241;SDS011;43095;53.302;5.786;2023-09-12T04:05:10;47.33;;;35.10;;
57241;SDS011;43095;53.302;5.786;2023-09-12T04:07:37;51.38;;;35.75;;
57241;SDS011;43095;53.302;5.786;2023-09-12T04:10:04;45.92;;;32.80;;
57241;SDS011;43095;53.302;5.786;2023-09-12T04:12:32;53.42;;;35.95;;
57241;SDS011;43095;53.302;5.786;2023-09-12T04:14:59;41.20;;;30.80;;
57241;SDS011;43095;53.302;5.786;2023-09-12T04:17:26;44.70;;;32.50;;
57241;SDS011;43095;53.302;5.786;2023-09-12T04:19:53;49.75;;;32.10;;
57241;SDS011;43095;53.302;5.786;2023-09-12T04:22:20;56.95;;;34.83;;
57241;SDS011;43095;53.302;5.786;2023-09-12T04:24:49;40.78;;;30.40;;
57241;SDS011;43095;53.302;5.786;2023-09-12T04:27:16;35.70;;;28.95;;
57241;SDS011;43095;53.302;5.786;2023-09-12T04:29:44;40.17;;;30.70;;
57241;SDS011;43095;53.302;5.786;2023-09-12T04:32:11;46.47;;;34.47;;
57241;SDS011;43095;53.302;5.786;2023-09-12T04:34:38;39.95;;;30.55;;
57241;SDS011;43095;53.302;5.786;2023-09-12T04:37:12;42.15;;;32.05;;
57241;SDS011;43095;53.302;5.786;2023-09-12T04:39:39;41.75;;;30.85;;
57241;SDS011;43095;53.302;5.786;2023-09-12T04:42:06;47.67;;;34.08;;
57241;SDS011;43095;53.302;5.786;2023-09-12T04:44:34;42.58;;;32.83;;
57241;SDS011;43095;53.302;5.786;2023-09-12T04:47:03;51.40;;;34.95;;
57241;SDS011;43095;53.302;5.786;2023-09-12T04:49:31;48.03;;;34.55;;
57241;SDS011;43095;53.302;5.786;2023-09-12T04:51:58;47.30;;;32.65;;
57241;SDS011;43095;53.302;5.786;2023-09-12T04:54:26;48.45;;;33.00;;
57241;SDS011;43095;53.302;5.786;2023-09-12T04:56:55;39.55;;;28.65;;
57241;SDS011;43095;53.302;5.786;2023-09-12T04:59:22;42.00;;;30.80;;
57241;SDS011;43095;53.302;5.786;2023-09-12T05:01:49;37.58;;;29.65;;
57241;SDS011;43095;53.302;5.786;2023-09-12T05:04:17;44.83;;;31.70;;
57241;SDS011;43095;53.302;5.786;2023-09-12T05:06:44;43.05;;;30.33;;
57241;SDS011;43095;53.302;5.786;2023-09-12T05:09:12;49.85;;;34.60;;
57241;SDS011;43095;53.302;5.786;2023-09-12T05:11:39;51.22;;;34.53;;
57241;SDS011;43095;53.302;5.786;2023-09-12T05:14:06;54.10;;;36.78;;
57241;SDS011;43095;53.302;5.786;2023-09-12T05:16:33;74.50;;;41.50;;
57241;SDS011;43095;53.302;5.786;2023-09-12T05:19:01;81.20;;;46.90;;
57241;SDS011;43095;53.302;5.786;2023-09-12T05:21:30;116.93;;;59.03;;
57241;SDS011;43095;53.302;5.786;2023-09-12T05:23:57;92.82;;;53.55;;
57241;SDS011;43095;53.302;5.786;2023-09-12T05:26:24;95.65;;;54.97;;
57241;SDS011;43095;53.302;5.786;2023-09-12T05:28:51;100.25;;;53.47;;
57241;SDS011;43095;53.302;5.786;2023-09-12T05:31:19;119.85;;;62.85;;
57241;SDS011;43095;53.302;5.786;2023-09-12T05:33:46;125.97;;;63.55;;
57241;SDS011;43095;53.302;5.786;2023-09-12T05:36:15;102.88;;;55.67;;
57241;SDS011;43095;53.302;5.786;2023-09-12T05:38:42;86.65;;;51.03;;
57241;SDS011;43095;53.302;5.786;2023-09-12T05:41:10;104.57;;;55.47;;
57241;SDS011;43095;53.302;5.786;2023-09-12T05:43:40;113.03;;;60.83;;
57241;SDS011;43095;53.302;5.786;2023-09-12T05:46:07;105.43;;;56.78;;
57241;SDS011;43095;53.302;5.786;2023-09-12T05:48:34;106.55;;;56.78;;
57241;SDS011;43095;53.302;5.786;2023-09-12T05:51:01;102.93;;;54.65;;
57241;SDS011;43095;53.302;5.786;2023-09-12T05:53:29;118.05;;;59.65;;
57241;SDS011;43095;53.302;5.786;2023-09-12T05:55:57;101.32;;;56.05;;
57241;SDS011;43095;53.302;5.786;2023-09-12T05:58:24;121.75;;;60.20;;
57241;SDS011;43095;53.302;5.786;2023-09-12T06:00:52;107.75;;;56.63;;
57241;SDS011;43095;53.302;5.786;2023-09-12T06:03:20;120.40;;;64.38;;
57241;SDS011;43095;53.302;5.786;2023-09-12T06:05:48;115.55;;;61.33;;
57241;SDS011;43095;53.302;5.786;2023-09-12T06:08:15;112.78;;;56.13;;
57241;SDS011;43095;53.302;5.786;2023-09-12T06:10:42;121.15;;;63.40;;
57241;SDS011;43095;53.302;5.786;2023-09-12T06:13:10;101.10;;;54.45;;
57241;SDS011;43095;53.302;5.786;2023-09-12T06:15:38;103.85;;;57.30;;
57241;SDS011;43095;53.302;5.786;2023-09-12T06:18:08;104.70;;;59.00;;
57241;SDS011;43095;53.302;5.786;2023-09-12T06:20:35;101.28;;;56.65;;
57241;SDS011;43095;53.302;5.786;2023-09-12T06:23:03;94.88;;;52.88;;
57241;SDS011;43095;53.302;5.786;2023-09-12T06:25:31;114.95;;;61.63;;
57241;SDS011;43095;53.302;5.786;2023-09-12T06:27:58;94.55;;;51.88;;
57241;SDS011;43095;53.302;5.786;2023-09-12T06:30:25;98.72;;;56.83;;
57241;SDS011;43095;53.302;5.786;2023-09-12T06:32:52;96.65;;;54.78;;
57241;SDS011;43095;53.302;5.786;2023-09-12T06:35:19;95.85;;;53.78;;
57241;SDS011;43095;53.302;5.786;2023-09-12T06:37:47;89.65;;;52.70;;
57241;SDS011;43095;53.302;5.786;2023-09-12T06:40:14;92.78;;;53.25;;
57241;SDS011;43095;53.302;5.786;2023-09-12T06:42:41;89.65;;;52.42;;
57241;SDS011;43095;53.302;5.786;2023-09-12T06:45:10;89.72;;;51.67;;
57241;SDS011;43095;53.302;5.786;2023-09-12T06:47:37;91.72;;;52.45;;
57241;SDS011;43095;53.302;5.786;2023-09-12T06:50:04;90.10;;;51.38;;
57241;SDS011;43095;53.302;5.786;2023-09-12T06:52:39;89.68;;;50.10;;
57241;SDS011;43095;53.302;5.786;2023-09-12T06:55:07;81.28;;;47.45;;
57241;SDS011;43095;53.302;5.786;2023-09-12T06:57:34;87.32;;;49.42;;
57241;SDS011;43095;53.302;5.786;2023-09-12T07:00:01;82.25;;;48.50;;
57241;SDS011;43095;53.302;5.786;2023-09-12T07:02:33;79.30;;;49.35;;
57241;SDS011;43095;53.302;5.786;2023-09-12T07:05:00;81.90;;;48.40;;
57241;SDS011;43095;53.302;5.786;2023-09-12T07:07:30;74.82;;;45.65;;
57241;SDS011;43095;53.302;5.786;2023-09-12T07:09:58;75.97;;;46.72;;
57241;SDS011;43095;53.302;5.786;2023-09-12T07:12:46;74.53;;;45.70;;
57241;SDS011;43095;53.302;5.786;2023-09-12T07:15:13;73.82;;;45.30;;
57241;SDS011;43095;53.302;5.786;2023-09-12T07:17:40;74.25;;;47.85;;
57241;SDS011;43095;53.302;5.786;2023-09-12T07:20:08;74.22;;;44.92;;
57241;SDS011;43095;53.302;5.786;2023-09-12T07:22:38;66.20;;;44.35;;
57241;SDS011;43095;53.302;5.786;2023-09-12T07:25:09;71.38;;;43.53;;
57241;SDS011;43095;53.302;5.786;2023-09-12T07:27:38;67.60;;;45.25;;
57241;SDS011;43095;53.302;5.786;2023-09-12T07:30:09;71.65;;;46.47;;
57241;SDS011;43095;53.302;5.786;2023-09-12T07:32:37;62.47;;;42.38;;
57241;SDS011;43095;53.302;5.786;2023-09-12T07:35:04;65.45;;;41.17;;
57241;SDS011;43095;53.302;5.786;2023-09-12T07:37:32;64.38;;;41.65;;
57241;SDS011;43095;53.302;5.786;2023-09-12T07:39:59;64.70;;;42.13;;
57241;SDS011;43095;53.302;5.786;2023-09-12T07:42:26;57.60;;;41.00;;
57241;SDS011;43095;53.302;5.786;2023-09-12T07:44:53;63.90;;;42.75;;
57241;SDS011;43095;53.302;5.786;2023-09-12T07:47:20;59.15;;;41.05;;
57241;SDS011;43095;53.302;5.786;2023-09-12T07:49:56;60.22;;;40.35;;
57241;SDS011;43095;53.302;5.786;2023-09-12T07:52:28;54.58;;;36.58;;
57241;SDS011;43095;53.302;5.786;2023-09-12T07:54:59;47.92;;;33.15;;
57241;SDS011;43095;53.302;5.786;2023-09-12T07:57:28;44.75;;;32.10;;
57241;SDS011;43095;53.302;5.786;2023-09-12T07:59:56;57.20;;;35.05;;
57241;SDS011;43095;53.302;5.786;2023-09-12T08:02:23;50.83;;;35.40;;
57241;SDS011;43095;53.302;5.786;2023-09-12T08:04:53;50.50;;;33.13;;
57241;SDS011;43095;53.302;5.786;2023-09-12T08:07:21;53.42;;;33.47;;
57241;SDS011;43095;53.302;5.786;2023-09-12T08:09:52;40.92;;;30.50;;
57241;SDS011;43095;53.302;5.786;2023-09-12T08:12:24;36.30;;;27.75;;
57241;SDS011;43095;53.302;5.786;2023-09-12T08:14:56;46.50;;;28.38;;
57241;SDS011;43095;53.302;5.786;2023-09-12T08:17:24;44.80;;;26.77;;
57241;SDS011;43095;53.302;5.786;2023-09-12T08:19:51;38.45;;;27.83;;
57241;SDS011;43095;53.302;5.786;2023-09-12T08:22:18;37.03;;;26.17;;
57241;SDS011;43095;53.302;5.786;2023-09-12T08:24:46;38.10;;;26.63;;
57241;SDS011;43095;53.302;5.786;2023-09-12T08:27:13;37.50;;;25.55;;
57241;SDS011;43095;53.302;5.786;2023-09-12T08:29:40;38.38;;;24.88;;
57241;SDS011;43095;53.302;5.786;2023-09-12T08:32:08;32.70;;;22.98;;
57241;SDS011;43095;53.302;5.786;2023-09-12T08:34:35;29.63;;;21.33;;
57241;SDS011;43095;53.302;5.786;2023-09-12T08:37:02;24.33;;;16.80;;
57241;SDS011;43095;53.302;5.786;2023-09-12T08:39:41;27.35;;;19.35;;
57241;SDS011;43095;53.302;5.786;2023-09-12T08:44:41;29.48;;;19.05;;
57241;SDS011;43095;53.302;5.786;2023-09-12T08:47:11;32.58;;;22.10;;
57241;SDS011;43095;53.302;5.786;2023-09-12T08:49:38;30.08;;;22.10;;
57241;SDS011;43095;53.302;5.786;2023-09-12T08:52:08;30.85;;;20.98;;
57241;SDS011;43095;53.302;5.786;2023-09-12T08:54:36;30.35;;;20.88;;
57241;SDS011;43095;53.302;5.786;2023-09-12T08:57:03;35.78;;;23.83;;
57241;SDS011;43095;53.302;5.786;2023-09-12T08:59:32;35.90;;;24.02;;
57241;SDS011;43095;53.302;5.786;2023-09-12T09:02:00;35.13;;;24.45;;
57241;SDS011;43095;53.302;5.786;2023-09-12T09:04:29;33.83;;;22.85;;
57241;SDS011;43095;53.302;5.786;2023-09-12T09:06:59;32.20;;;21.77;;
57241;SDS011;43095;53.302;5.786;2023-09-12T09:09:28;33.80;;;21.77;;
57241;SDS011;43095;53.302;5.786;2023-09-12T09:11:55;30.77;;;19.63;;
57241;SDS011;43095;53.302;5.786;2023-09-12T09:14:22;27.73;;;19.33;;
57241;SDS011;43095;53.302;5.786;2023-09-12T09:16:52;32.92;;;21.02;;
57241;SDS011;43095;53.302;5.786;2023-09-12T09:19:21;28.95;;;19.45;;
57241;SDS011;43095;53.302;5.786;2023-09-12T09:21:48;29.27;;;20.95;;
57241;SDS011;43095;53.302;5.786;2023-09-12T09:24:16;29.15;;;18.67;;
57241;SDS011;43095;53.302;5.786;2023-09-12T09:26:45;26.60;;;18.85;;
57241;SDS011;43095;53.302;5.786;2023-09-12T09:29:17;33.13;;;21.07;;
57241;SDS011;43095;53.302;5.786;2023-09-12T09:31:50;31.58;;;19.38;;
57241;SDS011;43095;53.302;5.786;2023-09-12T09:34:19;20.65;;;11.98;;
57241;SDS011;43095;53.302;5.786;2023-09-12T09:36:52;13.93;;;9.40;;
57241;SDS011;43095;53.302;5.786;2023-09-12T09:39:24;14.88;;;8.70;;
57241;SDS011;43095;53.302;5.786;2023-09-12T09:41:54;16.77;;;8.88;;
57241;SDS011;43095;53.302;5.786;2023-09-12T09:44:23;14.43;;;8.60;;
57241;SDS011;43095;53.302;5.786;2023-09-12T09:47:00;13.75;;;8.63;;
57241;SDS011;43095;53.302;5.786;2023-09-12T09:49:32;14.85;;;11.95;;
57241;SDS011;43095;53.302;5.786;2023-09-12T09:52:05;15.27;;;10.82;;
57241;SDS011;43095;53.302;5.786;2023-09-12T09:54:32;12.93;;;9.68;;
57241;SDS011;43095;53.302;5.786;2023-09-12T09:57:00;17.58;;;11.98;;
57241;SDS011;43095;53.302;5.786;2023-09-12T09:59:27;18.25;;;12.73;;
57241;SDS011;43095;53.302;5.786;2023-09-12T10:01:58;14.68;;;11.80;;
57241;SDS011;43095;53.302;5.786;2023-09-12T10:04:27;14.98;;;12.18;;
57241;SDS011;43095;53.302;5.786;2023-09-12T10:06:55;16.80;;;12.43;;
57241;SDS011;43095;53.302;5.786;2023-09-12T10:09:28;16.88;;;11.70;;
57241;SDS011;43095;53.302;5.786;2023-09-12T10:11:58;15.35;;;12.07;;
57241;SDS011;43095;53.302;5.786;2023-09-12T10:14:26;16.85;;;10.77;;
57241;SDS011;43095;53.302;5.786;2023-09-12T10:16:57;15.40;;;9.73;;
57241;SDS011;43095;53.302;5.786;2023-09-12T10:19:38;17.73;;;12.13;;
57241;SDS011;43095;53.302;5.786;2023-09-12T10:22:14;13.85;;;10.00;;
57241;SDS011;43095;53.302;5.786;2023-09-12T10:24:49;12.85;;;10.45;;
57241;SDS011;43095;53.302;5.786;2023-09-12T10:27:18;13.70;;;10.20;;
57241;SDS011;43095;53.302;5.786;2023-09-12T10:29:50;13.87;;;8.67;;
57241;SDS011;43095;53.302;5.786;2023-09-12T10:32:19;14.55;;;9.98;;
57241;SDS011;43095;53.302;5.786;2023-09-12T10:34:48;12.30;;;9.45;;
57241;SDS011;43095;53.302;5.786;2023-09-12T10:37:16;11.88;;;9.32;;
57241;SDS011;43095;53.302;5.786;2023-09-12T10:39:46;11.43;;;9.10;;
57241;SDS011;43095;53.302;5.786;2023-09-12T10:42:16;11.00;;;9.00;;
57241;SDS011;43095;53.302;5.786;2023-09-12T10:44:44;12.55;;;8.73;;
57241;SDS011;43095;53.302;5.786;2023-09-12T10:47:13;12.02;;;10.68;;
57241;SDS011;43095;53.302;5.786;2023-09-12T10:49:43;11.43;;;9.50;;
57241;SDS011;43095;53.302;5.786;2023-09-12T10:52:21;19.02;;;12.77;;
57241;SDS011;43095;53.302;5.786;2023-09-12T10:54:52;12.52;;;10.00;;
57241;SDS011;43095;53.302;5.786;2023-09-12T10:57:19;14.57;;;10.13;;
57241;SDS011;43095;53.302;5.786;2023-09-12T11:02:33;14.23;;;9.35;;
57241;SDS011;43095;53.302;5.786;2023-09-12T11:05:04;10.82;;;9.65;;
57241;SDS011;43095;53.302;5.786;2023-09-12T11:07:58;10.77;;;8.15;;
57241;SDS011;43095;53.302;5.786;2023-09-12T11:10:27;10.43;;;8.25;;
57241;SDS011;43095;53.302;5.786;2023-09-12T11:12:58;15.82;;;10.95;;
57241;SDS011;43095;53.302;5.786;2023-09-12T11:15:26;15.75;;;9.48;;
57241;SDS011;43095;53.302;5.786;2023-09-12T11:18:01;11.57;;;9.07;;
57241;SDS011;43095;53.302;5.786;2023-09-12T11:23:26;12.95;;;7.75;;
57241;SDS011;43095;53.302;5.786;2023-09-12T11:26:05;9.63;;;6.97;;
57241;SDS011;43095;53.302;5.786;2023-09-12T11:28:34;6.10;;;5.40;;
57241;SDS011;43095;53.302;5.786;2023-09-12T11:31:01;10.23;;;6.63;;
57241;SDS011;43095;53.302;5.786;2023-09-12T11:33:29;5.93;;;5.32;;
57241;SDS011;43095;53.302;5.786;2023-09-12T11:35:58;7.40;;;5.13;;
57241;SDS011;43095;53.302;5.786;2023-09-12T11:38:28;6.35;;;4.22;;
57241;SDS011;43095;53.302;5.786;2023-09-12T11:40:57;6.40;;;4.35;;
57241;SDS011;43095;53.302;5.786;2023-09-12T11:43:26;7.05;;;5.53;;
57241;SDS011;43095;53.302;5.786;2023-09-12T11:45:55;9.68;;;5.78;;
57241;SDS011;43095;53.302;5.786;2023-09-12T11:48:24;10.80;;;7.47;;
57241;SDS011;43095;53.302;5.786;2023-09-12T11:50:52;8.25;;;6.53;;
57241;SDS011;43095;53.302;5.786;2023-09-12T11:53:25;8.85;;;6.57;;
57241;SDS011;43095;53.302;5.786;2023-09-12T11:55:58;10.00;;;7.38;;
57241;SDS011;43095;53.302;5.786;2023-09-12T11:58:26;8.48;;;7.40;;
57241;SDS011;43095;53.302;5.786;2023-09-12T12:00:55;10.27;;;6.95;;
57241;SDS011;43095;53.302;5.786;2023-09-12T12:03:25;10.85;;;7.38;;
57241;SDS011;43095;53.302;5.786;2023-09-12T12:05:55;10.35;;;8.27;;
57241;SDS011;43095;53.302;5.786;2023-09-12T12:08:23;14.63;;;9.18;;
57241;SDS011;43095;53.302;5.786;2023-09-12T12:10:56;11.23;;;8.68;;
57241;SDS011;43095;53.302;5.786;2023-09-12T12:13:27;8.95;;;6.07;;
57241;SDS011;43095;53.302;5.786;2023-09-12T12:15:55;10.60;;;5.13;;
57241;SDS011;43095;53.302;5.786;2023-09-12T12:18:24;13.00;;;5.00;;
57241;SDS011;43095;53.302;5.786;2023-09-12T12:20:52;11.57;;;5.75;;
57241;SDS011;43095;53.302;5.786;2023-09-12T12:23:19;6.97;;;4.47;;
57241;SDS011;43095;53.302;5.786;2023-09-12T12:25:46;10.90;;;4.28;;
57241;SDS011;43095;53.302;5.786;2023-09-12T12:28:13;11.63;;;4.97;;
57241;SDS011;43095;53.302;5.786;2023-09-12T12:30:43;9.85;;;4.70;;
57241;SDS011;43095;53.302;5.786;2023-09-12T12:33:10;9.68;;;4.85;;
57241;SDS011;43095;53.302;5.786;2023-09-12T12:36:01;10.20;;;4.38;;
57241;SDS011;43095;53.302;5.786;2023-09-12T12:38:35;9.95;;;4.65;;
57241;SDS011;43095;53.302;5.786;2023-09-12T12:41:27;6.82;;;3.75;;
57241;SDS011;43095;53.302;5.786;2023-09-12T12:44:11;9.73;;;4.20;;
57241;SDS011;43095;53.302;5.786;2023-09-12T12:46:58;8.10;;;3.85;;
57241;SDS011;43095;53.302;5.786;2023-09-12T12:49:25;6.53;;;3.50;;
57241;SDS011;43095;53.302;5.786;2023-09-12T12:51:52;5.63;;;3.30;;
57241;SDS011;43095;53.302;5.786;2023-09-12T12:54:21;6.43;;;3.58;;
57241;SDS011;43095;53.302;5.786;2023-09-12T12:56:50;7.05;;;3.22;;
57241;SDS011;43095;53.302;5.786;2023-09-12T12:59:19;5.78;;;3.25;;
57241;SDS011;43095;53.302;5.786;2023-09-12T13:01:46;6.78;;;3.45;;
57241;SDS011;43095;53.302;5.786;2023-09-12T13:04:15;6.75;;;3.33;;
57241;SDS011;43095;53.302;5.786;2023-09-12T13:06:42;7.22;;;3.95;;
57241;SDS011;43095;53.302;5.786;2023-09-12T13:09:10;7.88;;;3.58;;
57241;SDS011;43095;53.302;5.786;2023-09-12T13:11:38;5.57;;;3.40;;
57241;SDS011;43095;53.302;5.786;2023-09-12T13:14:05;7.35;;;3.47;;
57241;SDS011;43095;53.302;5.786;2023-09-12T13:16:38;6.22;;;3.08;;
57241;SDS011;43095;53.302;5.786;2023-09-12T13:19:07;4.72;;;2.88;;
57241;SDS011;43095;53.302;5.786;2023-09-12T13:21:38;4.20;;;3.10;;
57241;SDS011;43095;53.302;5.786;2023-09-12T13:24:06;4.95;;;3.13;;
57241;SDS011;43095;53.302;5.786;2023-09-12T13:26:33;6.60;;;2.50;;
57241;SDS011;43095;53.302;5.786;2023-09-12T13:29:00;7.20;;;3.45;;
57241;SDS011;43095;53.302;5.786;2023-09-12T13:31:27;5.57;;;3.00;;
57241;SDS011;43095;53.302;5.786;2023-09-12T13:33:55;6.60;;;3.13;;
57241;SDS011;43095;53.302;5.786;2023-09-12T13:36:22;6.40;;;2.92;;
57241;SDS011;43095;53.302;5.786;2023-09-12T13:38:51;4.88;;;2.97;;
57241;SDS011;43095;53.302;5.786;2023-09-12T13:41:18;5.60;;;3.17;;
57241;SDS011;43095;53.302;5.786;2023-09-12T13:43:45;5.70;;;3.25;;
57241;SDS011;43095;53.302;5.786;2023-09-12T13:46:13;8.27;;;3.33;;
57241;SDS011;43095;53.302;5.786;2023-09-12T13:48:40;6.70;;;3.38;;
57241;SDS011;43095;53.302;5.786;2023-09-12T13:51:07;5.22;;;3.03;;
57241;SDS011;43095;53.302;5.786;2023-09-12T13:53:34;5.00;;;3.10;;
57241;SDS011;43095;53.302;5.786;2023-09-12T13:56:02;6.55;;;2.90;;
57241;SDS011;43095;53.302;5.786;2023-09-12T13:58:29;6.57;;;3.08;;
57241;SDS011;43095;53.302;5.786;2023-09-12T14:01:08;8.13;;;3.65;;
57241;SDS011;43095;53.302;5.786;2023-09-12T14:03:38;7.00;;;3.60;;
57241;SDS011;43095;53.302;5.786;2023-09-12T14:06:06;7.28;;;3.00;;
57241;SDS011;43095;53.302;5.786;2023-09-12T14:08:33;5.93;;;3.20;;
57241;SDS011;43095;53.302;5.786;2023-09-12T14:11:01;7.38;;;2.58;;
57241;SDS011;43095;53.302;5.786;2023-09-12T14:13:29;6.68;;;3.45;;
57241;SDS011;43095;53.302;5.786;2023-09-12T14:15:57;6.35;;;2.80;;
57241;SDS011;43095;53.302;5.786;2023-09-12T14:18:24;4.32;;;3.25;;
57241;SDS011;43095;53.302;5.786;2023-09-12T14:20:52;5.18;;;2.88;;
57241;SDS011;43095;53.302;5.786;2023-09-12T14:23:19;5.20;;;2.38;;
57241;SDS011;43095;53.302;5.786;2023-09-12T14:25:48;6.25;;;2.50;;
57241;SDS011;43095;53.302;5.786;2023-09-12T14:28:16;4.63;;;2.30;;
57241;SDS011;43095;53.302;5.786;2023-09-12T14:30:44;3.45;;;2.22;;
57241;SDS011;43095;53.302;5.786;2023-09-12T14:33:12;6.90;;;2.10;;
57241;SDS011;43095;53.302;5.786;2023-09-12T14:35:43;4.13;;;2.22;;
57241;SDS011;43095;53.302;5.786;2023-09-12T14:38:11;4.10;;;1.90;;
57241;SDS011;43095;53.302;5.786;2023-09-12T14:40:39;3.10;;;1.85;;
57241;SDS011;43095;53.302;5.786;2023-09-12T14:43:10;4.03;;;1.85;;
57241;SDS011;43095;53.302;5.786;2023-09-12T14:45:37;5.78;;;1.92;;
57241;SDS011;43095;53.302;5.786;2023-09-12T14:48:05;2.63;;;1.88;;